Time;durP1;ratioP1;P1;durP2;ratioP2;P2;SDS_P1;SDS_P2;PMS_P1;PMS_P2;Temp;Humidity;BMP_temperature;BMP_pressure;BME280_temperature;BME280_humidity;BME280_pressure;Samples;Min_cycle;Max_cycle;Signal;HPM_P1;HPM_P2
2021/01/22 00:01:23;;;;;;;55.63;2.20;;;11.70;1.00;;;;;;5093982;28;20860;-69
2021/01/22 00:03:49;;;;;;;56.37;2.53;;;11.60;1.00;;;;;;5093680;28;20466;-69
2021/01/22 00:06:16;;;;;;;56.00;2.40;;;11.60;1.00;;;;;;5094181;28;20537;-66
2021/01/22 00:08:42;;;;;;;56.80;2.30;;;11.60;1.00;;;;;;5093912;28;20506;-69
2021/01/22 00:11:09;;;;;;;56.27;2.53;;;11.60;1.00;;;;;;5093819;28;20496;-68
2021/01/22 00:13:36;;;;;;;55.70;2.23;;;11.60;1.00;;;;;;5093657;28;20470;-68
2021/01/22 00:16:03;;;;;;;55.33;2.10;;;11.50;1.00;;;;;;5093671;28;20496;-68
2021/01/22 00:18:30;;;;;;;55.90;2.07;;;11.40;1.00;;;;;;5093828;28;20442;-68
2021/01/22 00:20:56;;;;;;;56.07;2.60;;;11.40;1.00;;;;;;5093569;28;20446;-68
2021/01/22 00:23:22;;;;;;;56.40;2.17;;;11.30;1.00;;;;;;5093537;28;20543;-68
2021/01/22 00:25:50;;;;;;;56.00;2.33;;;11.20;1.00;;;;;;5092339;28;20829;-68
2021/01/22 00:28:16;;;;;;;56.00;2.43;;;11.20;1.00;;;;;;5093451;28;20452;-68
2021/01/22 00:30:43;;;;;;;55.70;2.23;;;11.20;1.00;;;;;;5093314;28;20485;-68
2021/01/22 00:33:10;;;;;;;56.27;2.50;;;11.20;1.00;;;;;;5093091;28;20518;-68
2021/01/22 00:35:36;;;;;;;56.60;3.27;;;11.30;1.00;;;;;;5093411;28;20441;-68
2021/01/22 00:38:03;;;;;;;56.57;2.37;;;11.30;1.00;;;;;;5094327;28;20449;-68
2021/01/22 00:40:29;;;;;;;55.30;2.10;;;11.30;1.00;;;;;;5117368;28;20527;-68
2021/01/22 00:42:56;;;;;;;55.40;2.10;;;11.20;1.00;;;;;;5115948;28;20468;-68
2021/01/22 00:45:22;;;;;;;55.40;2.10;;;11.20;1.00;;;;;;5114884;28;20468;-66
2021/01/22 00:47:52;;;;;;;56.87;2.27;;;11.10;1.00;;;;;;5117299;28;20442;-67
2021/01/22 00:50:20;;;;;;;55.60;2.20;;;11.10;1.00;;;;;;5117235;28;20473;-67
2021/01/22 00:52:47;;;;;;;55.90;2.30;;;11.00;1.00;;;;;;5116653;28;20533;-70
2021/01/22 00:55:13;;;;;;;55.40;2.20;;;11.00;1.00;;;;;;5117227;28;20449;-66
2021/01/22 00:57:39;;;;;;;55.50;2.10;;;10.90;1.00;;;;;;5115544;28;20519;-67
2021/01/22 01:00:09;;;;;;;55.87;2.20;;;10.90;1.00;;;;;;5109156;28;20453;-67
2021/01/22 01:02:35;;;;;;;55.70;2.20;;;10.80;1.00;;;;;;5092823;28;20470;-67
2021/01/22 01:05:03;;;;;;;55.90;2.23;;;10.80;1.00;;;;;;5092684;28;20937;-67
2021/01/22 01:07:29;;;;;;;56.77;2.53;;;10.70;1.00;;;;;;5092927;28;20446;-67
2021/01/22 01:09:56;;;;;;;55.50;2.40;;;10.70;1.00;;;;;;5092545;28;20460;-66
2021/01/22 01:12:22;;;;;;;55.80;2.33;;;10.70;1.00;;;;;;5092375;28;21114;-67
2021/01/22 01:14:48;;;;;;;55.70;2.33;;;10.70;1.00;;;;;;5092492;28;20452;-68
2021/01/22 01:17:15;;;;;;;55.60;2.20;;;10.70;1.00;;;;;;5092692;28;20444;-67
2021/01/22 01:19:41;;;;;;;56.00;2.40;;;10.70;1.00;;;;;;5092548;28;20538;-67
2021/01/22 01:22:08;;;;;;;55.50;2.40;;;10.70;1.00;;;;;;5092446;28;20447;-67
2021/01/22 01:24:34;;;;;;;55.50;2.20;;;10.70;1.00;;;;;;5092407;28;20470;-67
2021/01/22 01:27:01;;;;;;;55.43;2.00;;;10.70;1.00;;;;;;5090765;28;20498;-71
2021/01/22 01:29:27;;;;;;;55.20;2.13;;;10.70;1.00;;;;;;5092127;28;20457;-67
2021/01/22 01:31:53;;;;;;;55.40;2.30;;;10.70;1.00;;;;;;5092207;28;20507;-67
2021/01/22 01:34:20;;;;;;;55.80;2.30;;;10.70;1.00;;;;;;5092317;28;20461;-67
2021/01/22 01:36:46;;;;;;;56.17;2.30;;;10.70;1.00;;;;;;5092415;28;20502;-67
2021/01/22 01:39:13;;;;;;;55.97;2.30;;;10.60;1.00;;;;;;5092221;28;20456;-67
2021/01/22 01:41:40;;;;;;;55.43;2.00;;;10.60;1.00;;;;;;5092150;28;20445;-69
2021/01/22 01:44:06;;;;;;;55.73;2.20;;;10.70;1.00;;;;;;5092124;28;20823;-67
2021/01/22 01:46:34;;;;;;;55.30;2.07;;;10.70;1.00;;;;;;5092205;28;20453;-66
2021/01/22 01:49:00;;;;;;;55.63;2.20;;;10.80;1.00;;;;;;5092134;28;20453;-68
2021/01/22 01:51:27;;;;;;;55.90;2.07;;;10.80;1.00;;;;;;5092034;28;20482;-66
2021/01/22 01:53:54;;;;;;;55.17;2.20;;;10.80;1.00;;;;;;5091681;28;20527;-67
2021/01/22 01:56:22;;;;;;;55.60;2.00;;;10.90;1.00;;;;;;5091819;28;20459;-66
2021/01/22 01:58:48;;;;;;;55.60;2.20;;;10.90;1.00;;;;;;5090568;28;20823;-67
2021/01/22 02:01:18;;;;;;;55.53;2.20;;;10.90;1.00;;;;;;5091643;28;20540;-66
2021/01/22 02:03:45;;;;;;;58.17;2.20;;;10.80;1.00;;;;;;5091718;28;20462;-67
2021/01/22 02:06:11;;;;;;;56.63;2.23;;;10.80;1.00;;;;;;5091860;28;20491;-66
2021/01/22 02:08:38;;;;;;;55.27;2.07;;;10.80;1.00;;;;;;5091734;28;20441;-66
2021/01/22 02:11:07;;;;;;;55.20;2.10;;;10.80;1.00;;;;;;5091613;28;21279;-66
2021/01/22 02:13:35;;;;;;;56.43;2.47;;;10.90;1.00;;;;;;5091684;28;20465;-66
2021/01/22 02:16:02;;;;;;;55.30;2.03;;;10.90;1.00;;;;;;5091706;28;20454;-66
2021/01/22 02:18:30;;;;;;;55.53;2.30;;;10.90;1.00;;;;;;5091679;28;20449;-68
2021/01/22 02:21:04;;;;;;;58.00;2.70;;;10.90;1.00;;;;;;5091712;28;20518;-68
2021/01/22 02:23:33;;;;;;;56.37;2.30;;;10.90;1.00;;;;;;5091395;28;20469;-68
2021/01/22 02:26:35;;;;;;;56.33;2.20;;;10.90;1.00;;;;;;5091724;28;20474;-68
2021/01/22 02:29:05;;;;;;;55.57;2.10;;;10.90;1.00;;;;;;5089908;28;20451;-68
2021/01/22 02:31:35;;;;;;;65.10;2.40;;;11.00;1.00;;;;;;5091373;28;20489;-69
2021/01/22 02:34:04;;;;;;;59.53;2.47;;;11.00;1.00;;;;;;5091656;28;20540;-69
2021/01/22 02:36:33;;;;;;;55.30;2.33;;;11.00;1.00;;;;;;5091884;28;20456;-69
2021/01/22 02:39:02;;;;;;;56.37;2.70;;;11.10;1.00;;;;;;5091833;28;20449;-68
2021/01/22 02:41:30;;;;;;;56.90;2.40;;;11.10;1.00;;;;;;5091655;28;20817;-69
2021/01/22 02:44:01;;;;;;;56.00;2.33;;;11.20;1.00;;;;;;5091488;28;20462;-69
2021/01/22 02:46:28;;;;;;;55.43;2.30;;;11.20;1.00;;;;;;5091923;28;20432;-69
2021/01/22 02:48:55;;;;;;;57.30;2.77;;;11.10;1.00;;;;;;5091677;28;20447;-69
2021/01/22 02:51:22;;;;;;;56.17;2.40;;;11.10;1.00;;;;;;5091643;28;20486;-68
2021/01/22 02:53:48;;;;;;;56.53;2.50;;;11.10;1.00;;;;;;5091288;28;20898;-69
2021/01/22 02:56:23;;;;;;;56.90;2.40;;;11.10;1.00;;;;;;5091561;28;20949;-69
2021/01/22 02:58:56;;;;;;;56.00;2.27;;;11.10;1.00;;;;;;5091517;28;20498;-69
2021/01/22 03:01:28;;;;;;;58.20;2.80;;;11.00;1.00;;;;;;5089841;28;20930;-69
2021/01/22 03:04:01;;;;;;;56.90;2.80;;;11.00;1.00;;;;;;5091016;28;21002;-69
2021/01/22 03:06:32;;;;;;;56.00;2.40;;;11.00;1.00;;;;;;5091510;28;20448;-68
2021/01/22 03:09:00;;;;;;;57.00;2.50;;;11.00;1.00;;;;;;5091334;28;20456;-69
2021/01/22 03:11:28;;;;;;;56.53;2.63;;;10.90;1.00;;;;;;5091372;28;20543;-69
2021/01/22 03:13:57;;;;;;;55.80;2.30;;;10.80;1.00;;;;;;5091298;28;20995;-68
2021/01/22 03:16:25;;;;;;;56.13;2.40;;;10.70;1.00;;;;;;5091300;28;20448;-69
2021/01/22 03:18:59;;;;;;;56.83;2.83;;;10.70;1.00;;;;;;5091388;28;20444;-69
2021/01/22 03:21:25;;;;;;;57.00;2.30;;;10.60;1.00;;;;;;5094262;28;20463;-68
2021/01/22 03:23:52;;;;;;;55.67;2.30;;;10.60;1.00;;;;;;5094752;28;20466;-69
2021/01/22 03:26:18;;;;;;;58.80;2.30;;;10.70;1.00;;;;;;5094995;28;20475;-69
2021/01/22 03:28:44;;;;;;;56.90;2.33;;;10.60;1.00;;;;;;5094908;28;20450;-69
2021/01/22 03:31:11;;;;;;;57.50;2.30;;;10.50;1.00;;;;;;5093328;28;20489;-69
2021/01/22 03:33:38;;;;;;;56.07;2.70;;;10.50;1.00;;;;;;5094392;28;20480;-68
2021/01/22 03:36:06;;;;;;;56.37;2.60;;;10.40;1.00;;;;;;5094448;28;21015;-69
2021/01/22 03:38:32;;;;;;;57.30;2.37;;;10.40;1.00;;;;;;5094467;28;21174;-69
2021/01/22 03:40:59;;;;;;;56.70;2.27;;;10.30;1.00;;;;;;5094408;28;20533;-69
2021/01/22 03:43:25;;;;;;;56.77;2.60;;;10.20;1.00;;;;;;5094307;28;20466;-69
2021/01/22 03:45:51;;;;;;;57.50;2.50;;;10.10;1.00;;;;;;5094473;28;20456;-69
2021/01/22 03:48:18;;;;;;;58.97;2.87;;;10.20;1.00;;;;;;5094375;28;20498;-69
2021/01/22 03:50:45;;;;;;;58.67;2.70;;;10.20;1.00;;;;;;5094200;28;20542;-69
2021/01/22 03:53:11;;;;;;;60.33;2.80;;;10.20;1.00;;;;;;5093879;28;20486;-69
2021/01/22 03:55:38;;;;;;;57.37;2.60;;;10.20;1.00;;;;;;5094290;28;20951;-68
2021/01/22 03:58:04;;;;;;;57.10;2.60;;;10.20;1.00;;;;;;5094574;28;20450;-69
2021/01/22 04:00:31;;;;;;;56.87;2.33;;;10.20;1.00;;;;;;5094350;28;20484;-69
2021/01/22 04:02:57;;;;;;;59.13;2.77;;;10.20;1.00;;;;;;5092491;28;20473;-69
2021/01/22 04:05:24;;;;;;;56.80;2.60;;;10.20;1.00;;;;;;5093986;28;20945;-68
2021/01/22 04:07:51;;;;;;;58.57;3.03;;;10.20;1.00;;;;;;5094425;28;20508;-69
2021/01/22 04:10:18;;;;;;;57.03;2.70;;;10.20;1.00;;;;;;5094256;28;20780;-69
2021/01/22 04:12:44;;;;;;;60.33;2.67;;;10.10;1.00;;;;;;5093714;28;21064;-69
2021/01/22 04:15:12;;;;;;;61.57;2.70;;;10.10;1.00;;;;;;5093948;28;20532;-68
2021/01/22 04:17:38;;;;;;;56.40;2.50;;;10.10;1.00;;;;;;5093892;28;20441;-68
2021/01/22 04:20:05;;;;;;;57.77;2.57;;;10.00;1.00;;;;;;5093821;28;20471;-69
2021/01/22 04:22:32;;;;;;;57.37;2.53;;;10.10;1.00;;;;;;5093596;28;20501;-68
2021/01/22 04:24:59;;;;;;;55.80;2.40;;;10.20;1.00;;;;;;5093945;28;20827;-69
2021/01/22 04:27:25;;;;;;;56.50;2.53;;;10.20;1.00;;;;;;5093687;28;20454;-68
2021/01/22 04:29:51;;;;;;;57.50;2.60;;;10.30;1.00;;;;;;5093871;28;20510;-69
2021/01/22 04:32:18;;;;;;;57.03;2.50;;;10.30;1.00;;;;;;5091448;28;20574;-69
2021/01/22 04:34:44;;;;;;;58.60;3.00;;;10.30;1.00;;;;;;5092552;28;21038;-69
2021/01/22 04:37:10;;;;;;;58.33;2.30;;;10.20;1.00;;;;;;5093295;28;20488;-69
2021/01/22 04:39:37;;;;;;;57.20;2.83;;;10.30;1.00;;;;;;5093191;28;20968;-69
2021/01/22 04:42:05;;;;;;;56.40;2.73;;;10.30;1.00;;;;;;5093136;28;20529;-69
2021/01/22 04:44:31;;;;;;;58.50;2.60;;;10.40;1.00;;;;;;5093236;28;20470;-69
2021/01/22 04:46:59;;;;;;;56.33;2.73;;;10.30;1.00;;;;;;5093032;28;20971;-69
2021/01/22 04:49:26;;;;;;;56.57;3.00;;;10.30;1.00;;;;;;5093110;28;20479;-69
2021/01/22 04:51:55;;;;;;;55.70;2.33;;;10.30;1.00;;;;;;5093048;28;20538;-68
2021/01/22 04:54:27;;;;;;;57.10;2.83;;;10.30;1.00;;;;;;5092783;28;20537;-68
2021/01/22 04:56:57;;;;;;;58.30;2.60;;;10.40;1.00;;;;;;5092923;28;20446;-68
2021/01/22 04:59:32;;;;;;;56.77;2.60;;;10.40;1.00;;;;;;5093182;28;20456;-68
2021/01/22 05:02:01;;;;;;;56.67;2.60;;;10.50;1.00;;;;;;5092957;28;20519;-69
2021/01/22 05:04:28;;;;;;;57.53;2.33;;;10.50;1.00;;;;;;5091565;28;20500;-69
2021/01/22 05:06:54;;;;;;;57.07;2.77;;;10.50;1.00;;;;;;5092694;28;20452;-69
2021/01/22 05:09:21;;;;;;;59.27;2.30;;;10.50;1.00;;;;;;5092847;28;20445;-68
2021/01/22 05:11:53;;;;;;;56.87;2.40;;;10.60;1.00;;;;;;5092644;28;20579;-68
2021/01/22 05:14:20;;;;;;;56.80;2.30;;;10.60;1.00;;;;;;5092540;28;20825;-69
2021/01/22 05:17:00;;;;;;;56.83;2.70;;;10.60;1.00;;;;;;5092751;28;20446;-68
2021/01/22 05:19:26;;;;;;;56.37;2.50;;;10.60;1.00;;;;;;5092826;28;20442;-68
2021/01/22 05:21:53;;;;;;;56.67;2.80;;;10.70;1.00;;;;;;5092478;28;20502;-68
2021/01/22 05:24:21;;;;;;;55.40;2.13;;;10.60;1.00;;;;;;5092384;28;20471;-69
2021/01/22 05:26:48;;;;;;;55.87;2.33;;;10.60;1.00;;;;;;5092265;28;21028;-69
2021/01/22 05:29:17;;;;;;;57.60;2.90;;;10.60;1.00;;;;;;5092901;28;20865;-69
2021/01/22 05:31:43;;;;;;;56.10;2.03;;;10.60;1.00;;;;;;5092442;28;20579;-68
2021/01/22 05:34:10;;;;;;;55.90;2.10;;;10.50;1.00;;;;;;5091496;28;20505;-68
2021/01/22 05:36:37;;;;;;;55.77;2.40;;;10.60;1.00;;;;;;5094278;28;21318;-68
2021/01/22 05:39:04;;;;;;;56.43;2.20;;;10.60;1.00;;;;;;5112509;28;20972;-68
2021/01/22 05:41:32;;;;;;;56.40;2.40;;;10.60;1.00;;;;;;5112499;28;20451;-68
2021/01/22 05:43:58;;;;;;;55.40;2.20;;;10.70;1.00;;;;;;5112178;28;20473;-68
2021/01/22 05:46:27;;;;;;;55.80;2.27;;;10.60;1.00;;;;;;5112426;28;20444;-68
2021/01/22 05:49:06;;;;;;;55.90;2.30;;;10.70;1.00;;;;;;5112527;28;20446;-68
2021/01/22 05:51:34;;;;;;;58.57;2.50;;;10.70;1.00;;;;;;5112284;28;20479;-68
2021/01/22 05:54:00;;;;;;;55.20;2.00;;;10.60;1.00;;;;;;5112011;28;20566;-68
2021/01/22 05:56:27;;;;;;;56.40;1.97;;;10.60;1.00;;;;;;5112644;28;20521;-68
2021/01/22 05:58:53;;;;;;;55.87;2.07;;;10.60;1.00;;;;;;5112447;28;20532;-67
2021/01/22 06:01:21;;;;;;;55.63;2.20;;;10.70;1.00;;;;;;5112348;28;21142;-68
2021/01/22 06:03:49;;;;;;;57.00;2.00;;;10.70;1.00;;;;;;5111976;28;20514;-68
2021/01/22 06:06:16;;;;;;;56.00;2.40;;;10.70;1.00;;;;;;5100732;28;20446;-68
2021/01/22 06:08:54;;;;;;;55.20;1.90;;;10.70;1.00;;;;;;5091563;28;20458;-68
2021/01/22 06:11:22;;;;;;;57.70;2.20;;;10.70;1.00;;;;;;5091932;28;20484;-68
2021/01/22 06:13:49;;;;;;;55.20;2.00;;;10.80;1.00;;;;;;5091637;28;20467;-68
2021/01/22 06:16:17;;;;;;;62.80;2.40;;;10.70;1.00;;;;;;5091664;28;20824;-68
2021/01/22 06:18:47;;;;;;;57.57;2.30;;;10.70;1.00;;;;;;5091508;28;20556;-67
2021/01/22 06:21:17;;;;;;;59.43;3.23;;;10.70;1.00;;;;;;5091782;28;20499;-68
2021/01/22 06:23:46;;;;;;;56.07;2.40;;;10.70;1.00;;;;;;5091800;28;20466;-68
2021/01/22 06:26:14;;;;;;;59.70;2.40;;;10.70;1.00;;;;;;5091509;28;20449;-68
2021/01/22 06:28:41;;;;;;;56.83;2.07;;;10.70;1.00;;;;;;5091644;28;20558;-69
2021/01/22 06:31:09;;;;;;;57.27;2.50;;;10.70;1.00;;;;;;5091503;28;20481;-68
2021/01/22 06:33:36;;;;;;;55.47;2.33;;;10.70;1.00;;;;;;5091453;28;20480;-69
2021/01/22 06:36:05;;;;;;;61.80;2.53;;;10.70;1.00;;;;;;5091174;28;20460;-68
2021/01/22 06:38:31;;;;;;;55.50;2.17;;;10.70;1.00;;;;;;5093904;28;20533;-68
2021/01/22 06:40:58;;;;;;;56.60;2.43;;;10.70;1.00;;;;;;5111878;28;20477;-68
2021/01/22 06:43:25;;;;;;;57.33;2.80;;;10.80;1.00;;;;;;5111633;28;20468;-69
2021/01/22 06:45:58;;;;;;;56.37;2.37;;;10.80;1.00;;;;;;5111646;28;20457;-68
2021/01/22 06:48:25;;;;;;;55.13;2.00;;;10.80;1.00;;;;;;5112120;28;20885;-68
2021/01/22 06:50:51;;;;;;;59.37;2.20;;;10.80;1.00;;;;;;5111778;28;20476;-69
2021/01/22 06:53:18;;;;;;;55.93;2.27;;;10.70;1.00;;;;;;5111521;28;20527;-68
2021/01/22 06:56:09;;;;;;;61.50;2.33;;;10.70;1.00;;;;;;5113181;28;20451;-69
2021/01/22 06:58:37;;;;;;;55.87;2.20;;;10.70;1.00;;;;;;5115623;28;20440;-69
2021/01/22 07:01:06;;;;;;;56.10;2.37;;;10.70;1.00;;;;;;5115929;28;20471;-69
2021/01/22 07:03:50;;;;;;;56.00;2.20;;;10.70;1.00;;;;;;5115456;28;20490;-69
2021/01/22 07:06:51;;;;;;;56.00;2.27;;;10.60;1.00;;;;;;5115488;28;20778;-69
2021/01/22 07:09:19;;;;;;;60.30;2.37;;;10.60;1.00;;;;;;5114216;28;20463;-68
2021/01/22 07:11:58;;;;;;;56.67;3.23;;;10.50;1.00;;;;;;5115407;28;21073;-68
2021/01/22 07:14:39;;;;;;;55.90;2.43;;;10.50;1.00;;;;;;5115256;28;20547;-68
2021/01/22 07:17:17;;;;;;;59.30;2.43;;;10.40;1.00;;;;;;5115200;28;20504;-69
2021/01/22 07:19:55;;;;;;;55.90;2.30;;;10.50;1.00;;;;;;5115190;28;20448;-69
2021/01/22 07:22:22;;;;;;;57.20;2.30;;;10.50;1.00;;;;;;5115130;28;20536;-68
2021/01/22 07:24:50;;;;;;;57.10;3.13;;;10.50;1.00;;;;;;5115205;28;20452;-69
2021/01/22 07:27:17;;;;;;;55.77;2.00;;;10.50;1.00;;;;;;5115013;28;20531;-69
2021/01/22 07:30:11;;;;;;;56.33;2.40;;;10.50;1.00;;;;;;5114931;28;20448;-68
2021/01/22 07:32:38;;;;;;;55.63;2.27;;;10.40;1.00;;;;;;5114472;28;20496;-68
2021/01/22 07:35:06;;;;;;;55.50;2.00;;;10.40;1.00;;;;;;5114888;28;20452;-68
2021/01/22 07:37:37;;;;;;;56.63;2.30;;;10.40;1.00;;;;;;5114911;28;20452;-68
2021/01/22 07:40:14;;;;;;;56.67;2.43;;;10.40;1.00;;;;;;5094865;28;20457;-68
2021/01/22 07:42:41;;;;;;;61.17;2.57;;;10.40;1.00;;;;;;5094464;28;20988;-69
2021/01/22 07:45:10;;;;;;;56.43;2.40;;;10.40;1.00;;;;;;5094133;28;20586;-68
2021/01/22 07:47:39;;;;;;;56.70;2.20;;;10.60;1.00;;;;;;5094306;28;20452;-69
2021/01/22 07:50:07;;;;;;;56.97;2.40;;;10.60;1.00;;;;;;5094171;28;20461;-68
2021/01/22 07:52:38;;;;;;;58.53;2.57;;;10.50;1.00;;;;;;5093651;28;20598;-68
2021/01/22 07:55:13;;;;;;;57.00;2.50;;;10.60;1.00;;;;;;5093341;28;20457;-68
2021/01/22 07:57:39;;;;;;;56.00;2.40;;;10.60;1.00;;;;;;5093846;28;20452;-69
2021/01/22 08:00:08;;;;;;;55.90;2.30;;;10.60;1.00;;;;;;5094218;28;20446;-69
2021/01/22 08:02:35;;;;;;;58.00;2.70;;;10.70;1.00;;;;;;5093759;28;20450;-69
2021/01/22 08:05:03;;;;;;;56.87;3.07;;;10.70;1.00;;;;;;5093726;28;20957;-68
2021/01/22 08:07:38;;;;;;;61.57;2.83;;;10.70;1.00;;;;;;5093914;28;20542;-69
2021/01/22 08:10:07;;;;;;;59.30;2.23;;;10.80;1.00;;;;;;5092686;28;20453;-68
2021/01/22 08:12:34;;;;;;;57.30;2.60;;;11.10;1.00;;;;;;5093512;28;21019;-68
2021/01/22 08:15:14;;;;;;;55.50;2.17;;;11.00;1.00;;;;;;5093858;28;20449;-68
2021/01/22 08:17:43;;;;;;;57.23;2.10;;;11.10;1.00;;;;;;5093727;28;20445;-68
2021/01/22 08:20:11;;;;;;;56.70;2.13;;;11.10;1.00;;;;;;5093913;28;21008;-69
2021/01/22 08:22:37;;;;;;;56.07;2.53;;;11.20;1.00;;;;;;5093431;28;20468;-69
2021/01/22 08:25:05;;;;;;;56.17;2.30;;;11.30;1.00;;;;;;5093604;28;20580;-69
2021/01/22 08:27:32;;;;;;;58.43;2.27;;;11.30;1.00;;;;;;5093606;28;20499;-69
2021/01/22 08:29:58;;;;;;;57.00;2.57;;;11.40;1.00;;;;;;5093273;28;20932;-69
2021/01/22 08:32:26;;;;;;;55.30;2.00;;;11.70;1.00;;;;;;5093192;28;20482;-69
2021/01/22 08:34:52;;;;;;;57.30;2.20;;;11.60;1.00;;;;;;5093537;28;20442;-68
2021/01/22 08:37:20;;;;;;;55.70;2.17;;;11.70;1.00;;;;;;5093426;28;20492;-68
2021/01/22 08:39:55;;;;;;;57.90;2.30;;;11.70;1.00;;;;;;5093198;28;20446;-68
2021/01/22 08:42:22;;;;;;;56.67;2.60;;;12.20;1.00;;;;;;5095399;28;20836;-68
2021/01/22 08:44:56;;;;;;;57.13;2.20;;;11.90;1.00;;;;;;5113752;28;20452;-68
2021/01/22 08:47:23;;;;;;;57.30;2.20;;;12.00;1.00;;;;;;5113605;28;20448;-68
2021/01/22 08:49:54;;;;;;;56.33;2.27;;;12.10;1.00;;;;;;5113622;28;20474;-69
2021/01/22 08:52:21;;;;;;;55.80;2.10;;;12.10;1.00;;;;;;5112894;28;20992;-68
2021/01/22 08:54:49;;;;;;;59.80;2.53;;;12.20;1.00;;;;;;5113212;28;20445;-69
2021/01/22 08:57:15;;;;;;;56.07;2.40;;;12.30;1.00;;;;;;5113250;28;20507;-68
2021/01/22 08:59:49;;;;;;;62.07;2.23;;;12.50;1.00;;;;;;5113397;28;20445;-68
2021/01/22 09:02:16;;;;;;;56.20;2.67;;;12.60;1.00;;;;;;5113217;28;20452;-68
2021/01/22 09:04:42;;;;;;;57.60;2.70;;;12.80;1.00;;;;;;5113305;28;20818;-68
2021/01/22 09:07:17;;;;;;;56.00;2.10;;;12.90;1.00;;;;;;5112989;28;20450;-68
2021/01/22 09:09:48;;;;;;;58.00;2.73;;;13.10;1.00;;;;;;5113032;28;20452;-68
2021/01/22 09:12:16;;;;;;;56.07;2.60;;;13.20;1.00;;;;;;5111311;28;20487;-68
2021/01/22 09:14:54;;;;;;;56.80;2.23;;;13.30;1.00;;;;;;5112857;28;20454;-69
2021/01/22 09:17:25;;;;;;;57.70;2.70;;;13.30;1.00;;;;;;5112984;28;20452;-68
2021/01/22 09:19:54;;;;;;;56.60;2.60;;;13.30;1.00;;;;;;5112459;28;20453;-68
2021/01/22 09:22:23;;;;;;;56.03;2.30;;;13.20;1.00;;;;;;5112481;28;20449;-68
2021/01/22 09:24:49;;;;;;;57.60;3.57;;;13.20;1.00;;;;;;5112973;28;20446;-68
2021/01/22 09:27:16;;;;;;;57.60;2.73;;;13.20;1.00;;;;;;5112676;28;21003;-68
2021/01/22 09:29:42;;;;;;;58.30;2.43;;;13.10;1.00;;;;;;5112775;28;20453;-68
2021/01/22 09:32:09;;;;;;;57.67;2.90;;;13.10;1.00;;;;;;5112465;28;20568;-68
2021/01/22 09:34:35;;;;;;;56.57;2.60;;;13.10;1.00;;;;;;5112427;28;20461;-68
2021/01/22 09:37:01;;;;;;;56.87;2.53;;;13.10;1.00;;;;;;5112798;28;20441;-68
2021/01/22 09:39:28;;;;;;;57.03;2.43;;;13.20;1.00;;;;;;5112555;28;20944;-68
2021/01/22 09:41:55;;;;;;;58.30;2.20;;;13.30;1.00;;;;;;5110790;28;20812;-68
2021/01/22 09:44:21;;;;;;;56.67;2.20;;;13.30;1.00;;;;;;5091801;28;20466;-68
2021/01/22 09:46:47;;;;;;;57.17;2.30;;;13.40;1.00;;;;;;5092019;28;20446;-68
2021/01/22 09:49:14;;;;;;;57.43;2.70;;;13.50;1.00;;;;;;5091907;28;20450;-68
2021/01/22 09:51:40;;;;;;;57.80;2.77;;;13.60;1.00;;;;;;5091974;28;20564;-68
2021/01/22 09:54:09;;;;;;;57.00;2.87;;;13.70;1.00;;;;;;5091495;28;21058;-68
2021/01/22 09:56:36;;;;;;;57.00;2.40;;;13.70;1.00;;;;;;5091993;28;20856;-68
2021/01/22 09:59:05;;;;;;;56.03;2.30;;;13.80;1.00;;;;;;5091940;28;20498;-68
2021/01/22 10:01:32;;;;;;;61.60;3.20;;;13.80;1.00;;;;;;5091852;28;20438;-68
2021/01/22 10:03:58;;;;;;;59.00;2.97;;;13.80;1.00;;;;;;5091550;28;20836;-68
2021/01/22 10:06:24;;;;;;;58.57;2.70;;;13.80;1.00;;;;;;5091877;28;20828;-68
2021/01/22 10:08:51;;;;;;;57.20;2.47;;;13.90;1.00;;;;;;5091966;28;20450;-68
2021/01/22 10:11:17;;;;;;;63.27;2.60;;;13.90;1.00;;;;;;5091735;28;20564;-68
2021/01/22 10:13:44;;;;;;;60.97;2.70;;;13.90;1.00;;;;;;5090244;28;20470;-68
2021/01/22 10:16:12;;;;;;;59.83;3.13;;;14.00;1.00;;;;;;5100919;28;20427;-65
2021/01/22 10:28:24;;;;;;;57.67;2.60;;;14.00;1.00;;;;;;5076256;28;20439;-65
2021/01/22 10:30:55;;;;;;;57.60;3.00;;;14.10;1.00;;;;;;5058719;28;20440;-66
2021/01/22 10:33:54;;;;;;;57.40;2.60;;;14.10;1.00;;;;;;5079213;28;20452;-66
2021/01/22 10:36:22;;;;;;;64.70;2.60;;;14.00;1.00;;;;;;5062194;28;20455;-70
2021/01/22 10:38:53;;;;;;;58.70;2.60;;;14.00;1.00;;;;;;5088601;28;20530;-67
2021/01/22 10:41:31;;;;;;;56.40;2.60;;;14.00;1.00;;;;;;5120876;28;20456;-65
2021/01/22 10:44:00;;;;;;;56.00;2.40;;;14.10;1.00;;;;;;5106088;28;20934;-68
2021/01/22 10:46:28;;;;;;;56.10;2.73;;;14.10;1.00;;;;;;5095367;28;20468;-69
2021/01/22 10:48:54;;;;;;;57.87;2.77;;;14.20;1.00;;;;;;5095554;28;20870;-69
2021/01/22 10:51:21;;;;;;;57.73;2.43;;;14.30;1.00;;;;;;5095383;28;20478;-68
2021/01/22 10:53:47;;;;;;;57.50;2.40;;;14.40;1.00;;;;;;5094973;28;21013;-69
2021/01/22 10:56:13;;;;;;;55.80;2.30;;;14.40;1.00;;;;;;5095484;28;20469;-69
2021/01/22 10:58:39;;;;;;;56.93;2.40;;;14.50;1.00;;;;;;5095430;28;20500;-68
2021/01/22 11:01:06;;;;;;;61.37;2.77;;;14.60;1.00;;;;;;5096107;28;20507;-68
2021/01/22 11:03:33;;;;;;;59.93;2.40;;;14.70;1.00;;;;;;5095014;28;20516;-68
2021/01/22 11:06:00;;;;;;;58.33;3.60;;;14.90;1.00;;;;;;5095136;28;20901;-68
2021/01/22 11:08:26;;;;;;;59.77;2.40;;;15.10;1.00;;;;;;5094961;28;20446;-69
2021/01/22 11:10:53;;;;;;;55.70;2.20;;;15.10;1.00;;;;;;5095137;28;20454;-69
2021/01/22 11:13:19;;;;;;;57.40;2.30;;;15.10;1.00;;;;;;5094883;28;20526;-68
2021/01/22 11:15:46;;;;;;;55.77;2.17;;;15.10;1.00;;;;;;5094945;28;20810;-69
2021/01/22 11:18:12;;;;;;;55.50;2.30;;;15.10;1.00;;;;;;5095020;28;20843;-69
2021/01/22 11:20:40;;;;;;;55.80;2.27;;;15.10;1.00;;;;;;5094713;28;20457;-68
2021/01/22 11:23:07;;;;;;;62.03;2.73;;;15.10;1.00;;;;;;5094847;28;20458;-68
2021/01/22 11:25:34;;;;;;;56.43;2.50;;;15.00;1.00;;;;;;5094871;28;20491;-70
2021/01/22 11:28:01;;;;;;;58.60;2.03;;;14.90;1.00;;;;;;5094696;28;20446;-69
2021/01/22 11:30:27;;;;;;;56.57;2.37;;;14.80;1.00;;;;;;5093278;28;21105;-69
2021/01/22 11:32:53;;;;;;;55.97;2.87;;;14.70;1.00;;;;;;5094225;28;20486;-68
2021/01/22 11:35:19;;;;;;;56.20;2.20;;;14.70;1.00;;;;;;5094538;28;20443;-68
2021/01/22 11:37:47;;;;;;;56.00;2.10;;;14.60;1.00;;;;;;5094619;28;20434;-68
2021/01/22 11:40:14;;;;;;;56.57;2.60;;;14.50;1.00;;;;;;5094468;28;20450;-68
2021/01/22 11:42:41;;;;;;;59.00;2.57;;;14.40;1.00;;;;;;5093656;28;20458;-68
2021/01/22 11:45:09;;;;;;;56.47;2.53;;;14.50;1.00;;;;;;5094409;28;20495;-68
2021/01/22 11:47:35;;;;;;;60.70;2.20;;;14.50;1.00;;;;;;5094474;28;20446;-69
2021/01/22 11:50:02;;;;;;;60.70;2.87;;;14.70;1.00;;;;;;5094301;28;20442;-68
2021/01/22 11:52:28;;;;;;;56.30;2.30;;;15.30;1.00;;;;;;5094085;28;20572;-68
2021/01/22 11:54:55;;;;;;;55.97;2.20;;;15.10;1.00;;;;;;5094205;28;20462;-68
2021/01/22 11:57:21;;;;;;;55.40;2.30;;;15.20;1.00;;;;;;5094391;28;20870;-68
2021/01/22 11:59:47;;;;;;;55.27;2.17;;;15.20;1.00;;;;;;5094050;28;20934;-69
2021/01/22 12:02:14;;;;;;;55.27;2.20;;;15.10;1.00;;;;;;5092538;28;20458;-69
2021/01/22 12:04:40;;;;;;;55.97;2.20;;;15.10;1.00;;;;;;5093783;28;20977;-68
2021/01/22 12:07:06;;;;;;;56.53;2.30;;;15.00;1.00;;;;;;5093922;28;20529;-68
2021/01/22 12:09:33;;;;;;;59.97;2.43;;;15.00;1.00;;;;;;5094166;28;20485;-68
2021/01/22 12:12:00;;;;;;;55.40;2.20;;;14.90;1.00;;;;;;5093875;28;20521;-68
2021/01/22 12:14:27;;;;;;;55.10;2.23;;;14.80;1.00;;;;;;5093845;28;20557;-69
2021/01/22 12:16:53;;;;;;;56.17;2.40;;;14.80;1.00;;;;;;5093739;28;20453;-68
2021/01/22 12:19:20;;;;;;;57.00;2.50;;;14.80;1.00;;;;;;5093567;28;20802;-68
2021/01/22 12:21:46;;;;;;;56.10;2.30;;;14.80;1.00;;;;;;5093572;28;20450;-68
2021/01/22 12:24:12;;;;;;;55.60;2.07;;;14.90;1.00;;;;;;5093403;28;20470;-68
2021/01/22 12:26:39;;;;;;;55.80;2.20;;;14.90;1.00;;;;;;5093739;28;20537;-68
2021/01/22 12:29:06;;;;;;;55.87;2.27;;;14.90;1.00;;;;;;5093623;28;20489;-68
2021/01/22 12:31:32;;;;;;;56.00;2.30;;;14.90;1.00;;;;;;5093233;28;20478;-69
2021/01/22 12:33:59;;;;;;;55.67;2.00;;;15.00;1.00;;;;;;5091906;28;20478;-68
2021/01/22 12:36:25;;;;;;;54.97;1.97;;;15.20;1.00;;;;;;5093251;28;20485;-68
2021/01/22 12:38:51;;;;;;;55.97;1.90;;;15.30;1.00;;;;;;5093625;28;20446;-68
2021/01/22 12:41:18;;;;;;;55.47;2.00;;;16.00;1.00;;;;;;5093007;28;20451;-68
2021/01/22 12:43:44;;;;;;;56.20;2.20;;;16.90;1.00;;;;;;5092800;28;20496;-68
2021/01/22 12:46:12;;;;;;;56.60;2.43;;;17.90;1.00;;;;;;5091977;28;20443;-69
2021/01/22 12:48:38;;;;;;;57.07;2.30;;;19.00;1.00;;;;;;5091607;28;20453;-66
2021/01/22 12:51:05;;;;;;;59.40;2.60;;;20.20;1.00;;;;;;5092853;28;20475;-68
2021/01/22 12:53:31;;;;;;;55.97;2.47;;;21.20;1.00;;;;;;5090841;28;20861;-67
2021/01/22 12:55:57;;;;;;;57.20;2.67;;;21.90;1.00;;;;;;5098605;28;20478;-67
2021/01/22 12:58:24;;;;;;;55.80;2.27;;;22.10;1.00;;;;;;5102012;28;20809;-66
2021/01/22 13:00:50;;;;;;;56.40;2.27;;;22.00;1.00;;;;;;5102532;28;20466;-67
2021/01/22 13:03:17;;;;;;;60.70;3.20;;;20.90;1.00;;;;;;5099715;28;20500;-67